Time;durP1;ratioP1;P1;durP2;ratioP2;P2;SDS_P1;SDS_P2;PMS_P1;PMS_P2;Temp;Humidity;BMP_temperature;BMP_pressure;BME280_temperature;BME280_humidity;BME280_pressure;Samples;Min_cycle;Max_cycle;Signal;HPM_P1;HPM_P2
2022/06/29 00:01:19;;;;;;;8.77;3.22;;;;;;;;;;4988837;28;95597;-72
2022/06/29 00:03:45;;;;;;;7.32;3.40;;;;;;;;;;4987640;28;97247;-72
2022/06/29 00:06:12;;;;;;;8.30;3.25;;;;;;;;;;4988024;28;97498;-72
2022/06/29 00:08:38;;;;;;;10.05;3.38;;;;;;;;;;4987820;28;95683;-72
2022/06/29 00:11:05;;;;;;;6.50;3.38;;;;;;;;;;4988168;28;97014;-72
2022/06/29 00:13:31;;;;;;;12.10;3.33;;;;;;;;;;4986742;28;97158;-72
2022/06/29 00:15:57;;;;;;;5.60;3.15;;;;;;;;;;4991721;28;95635;-72
2022/06/29 00:18:23;;;;;;;12.27;3.30;;;;;;;;;;4987270;28;97358;-72
2022/06/29 00:20:50;;;;;;;12.25;3.38;;;;;;;;;;4985207;28;95792;-72
2022/06/29 00:23:16;;;;;;;8.65;3.50;;;;;;;;;;4987932;28;96883;-72
2022/06/29 00:25:42;;;;;;;6.68;3.30;;;;;;;;;;4986267;28;97393;-72
2022/06/29 00:28:09;;;;;;;10.27;3.40;;;;;;;;;;4979988;28;95169;-72
2022/06/29 00:30:36;;;;;;;6.20;3.45;;;;;;;;;;4987517;28;96591;-71
2022/06/29 00:33:02;;;;;;;7.82;3.72;;;;;;;;;;4987409;28;97032;-71
2022/06/29 00:35:29;;;;;;;9.70;3.75;;;;;;;;;;4986080;28;95601;-72
2022/06/29 00:37:55;;;;;;;6.13;3.50;;;;;;;;;;4991351;28;96842;-72
2022/06/29 00:40:21;;;;;;;9.38;3.63;;;;;;;;;;4987025;28;95682;-72
2022/06/29 00:42:50;;;;;;;6.72;3.80;;;;;;;;;;4986848;28;96956;-71
2022/06/29 00:45:16;;;;;;;6.40;3.67;;;;;;;;;;4989904;28;97212;-72
2022/06/29 00:47:42;;;;;;;7.63;3.50;;;;;;;;;;4990027;28;96067;-72
2022/06/29 00:50:09;;;;;;;6.25;3.88;;;;;;;;;;4989510;28;96832;-72
2022/06/29 00:52:36;;;;;;;8.77;3.90;;;;;;;;;;4990223;28;97199;-72
2022/06/29 00:55:05;;;;;;;6.65;3.45;;;;;;;;;;4988613;28;95347;-72
2022/06/29 00:57:37;;;;;;;9.13;3.50;;;;;;;;;;4989393;28;96753;-73
2022/06/29 01:00:04;;;;;;;5.75;3.50;;;;;;;;;;4993784;28;97087;-71
2022/06/29 01:02:33;;;;;;;9.50;3.60;;;;;;;;;;4990688;28;96765;-71
2022/06/29 01:05:00;;;;;;;9.70;3.78;;;;;;;;;;4988967;28;97112;-71
2022/06/29 01:07:28;;;;;;;10.23;3.53;;;;;;;;;;4989004;28;95827;-73
2022/06/29 01:09:54;;;;;;;6.45;3.72;;;;;;;;;;4988143;28;96858;-72
2022/06/29 01:12:21;;;;;;;8.15;3.60;;;;;;;;;;4989529;28;97180;-71
2022/06/29 01:14:50;;;;;;;7.68;3.78;;;;;;;;;;4989155;28;95440;-73
2022/06/29 01:17:18;;;;;;;6.53;3.38;;;;;;;;;;4989879;28;96778;-73
2022/06/29 01:19:44;;;;;;;5.00;3.35;;;;;;;;;;4989710;28;97258;-73
2022/06/29 01:22:11;;;;;;;7.72;3.83;;;;;;;;;;4992113;28;95436;-74
2022/06/29 01:24:38;;;;;;;6.03;3.25;;;;;;;;;;4987325;28;97209;-73
2022/06/29 01:27:05;;;;;;;9.25;3.67;;;;;;;;;;4986644;28;96857;-73
2022/06/29 01:29:32;;;;;;;7.97;3.30;;;;;;;;;;4989775;28;96938;-73
2022/06/29 01:31:59;;;;;;;7.00;3.65;;;;;;;;;;4988820;28;97479;-73
2022/06/29 01:34:26;;;;;;;5.53;3.38;;;;;;;;;;4989750;28;96151;-73
2022/06/29 01:36:53;;;;;;;5.38;3.30;;;;;;;;;;4989625;28;96832;-73
2022/06/29 01:39:19;;;;;;;8.18;3.95;;;;;;;;;;4988722;28;96254;-73
2022/06/29 01:41:45;;;;;;;6.63;3.58;;;;;;;;;;4972538;28;95949;-72
2022/06/29 01:44:12;;;;;;;4.57;3.20;;;;;;;;;;4991771;28;96801;-73
2022/06/29 01:46:38;;;;;;;5.75;3.13;;;;;;;;;;4988706;28;96025;-72
2022/06/29 01:49:05;;;;;;;5.13;3.17;;;;;;;;;;4990824;28;96833;-72
2022/06/29 01:51:32;;;;;;;7.03;3.20;;;;;;;;;;4988858;28;96384;-72
2022/06/29 01:53:59;;;;;;;5.13;3.30;;;;;;;;;;4989274;28;96656;-72
2022/06/29 01:56:25;;;;;;;8.52;2.95;;;;;;;;;;4987715;28;96216;-73
2022/06/29 01:58:51;;;;;;;7.28;3.22;;;;;;;;;;4990015;28;96281;-72
2022/06/29 02:01:18;;;;;;;6.60;3.60;;;;;;;;;;4988542;28;96021;-73
2022/06/29 02:03:44;;;;;;;6.88;3.70;;;;;;;;;;4989605;28;95941;-72
2022/06/29 02:06:11;;;;;;;5.43;3.35;;;;;;;;;;4990512;28;97635;-72
2022/06/29 02:08:37;;;;;;;9.27;3.03;;;;;;;;;;4989308;28;96746;-73
2022/06/29 02:11:04;;;;;;;8.82;3.75;;;;;;;;;;4989345;28;97381;-73
2022/06/29 02:13:30;;;;;;;7.93;3.60;;;;;;;;;;4988247;28;96152;-72
2022/06/29 02:15:56;;;;;;;6.60;3.47;;;;;;;;;;4988473;28;97043;-72
2022/06/29 02:18:23;;;;;;;6.03;3.30;;;;;;;;;;4988030;28;97405;-73
2022/06/29 02:20:49;;;;;;;4.93;3.28;;;;;;;;;;4989105;28;95579;-72
2022/06/29 02:23:15;;;;;;;6.07;3.30;;;;;;;;;;4989370;28;96766;-73
2022/06/29 02:25:42;;;;;;;5.38;3.25;;;;;;;;;;4991386;28;96933;-72
2022/06/29 02:28:08;;;;;;;12.32;3.42;;;;;;;;;;4988796;28;96691;-72
2022/06/29 02:36:04;;;;;;;6.53;2.97;;;;;;;;;;4989621;28;96822;-72
2022/06/29 02:38:31;;;;;;;10.93;3.50;;;;;;;;;;4988566;28;97332;-72
2022/06/29 02:40:57;;;;;;;10.10;3.50;;;;;;;;;;4989049;28;95420;-72
2022/06/29 02:43:24;;;;;;;12.20;3.30;;;;;;;;;;4989270;28;97301;-72
2022/06/29 02:45:51;;;;;;;6.78;3.53;;;;;;;;;;4989093;28;97640;-71
2022/06/29 02:48:17;;;;;;;4.35;3.15;;;;;;;;;;4990499;28;95713;-72
2022/06/29 02:50:44;;;;;;;5.60;3.40;;;;;;;;;;4988998;28;97347;-71
2022/06/29 02:53:10;;;;;;;12.27;3.80;;;;;;;;;;4986830;28;96785;-71
2022/06/29 02:55:37;;;;;;;5.57;3.20;;;;;;;;;;4988422;28;96725;-71
2022/06/29 02:58:03;;;;;;;6.40;3.53;;;;;;;;;;4988515;28;97272;-72
2022/06/29 03:00:29;;;;;;;12.95;3.88;;;;;;;;;;4989609;28;95527;-72
2022/06/29 03:02:56;;;;;;;7.63;3.67;;;;;;;;;;4987924;28;97021;-72
2022/06/29 03:05:22;;;;;;;5.25;3.50;;;;;;;;;;4988505;28;97194;-73
2022/06/29 03:07:49;;;;;;;7.03;3.70;;;;;;;;;;4988220;28;95616;-73
2022/06/29 03:10:15;;;;;;;6.50;3.47;;;;;;;;;;4991490;28;96511;-74
2022/06/29 03:12:41;;;;;;;8.40;3.53;;;;;;;;;;4989566;28;95442;-73
2022/06/29 03:15:08;;;;;;;5.78;3.17;;;;;;;;;;4988464;28;96863;-73
2022/06/29 03:17:34;;;;;;;8.18;3.30;;;;;;;;;;4986757;28;97276;-72
2022/06/29 03:20:04;;;;;;;5.07;3.08;;;;;;;;;;4988197;28;95330;-72
2022/06/29 03:22:31;;;;;;;8.20;3.60;;;;;;;;;;4987923;28;97112;-72
2022/06/29 03:24:57;;;;;;;14.98;4.00;;;;;;;;;;4987492;28;98786;-72
2022/06/29 03:27:23;;;;;;;5.65;3.65;;;;;;;;;;4988157;28;95277;-72
2022/06/29 03:29:49;;;;;;;5.68;3.72;;;;;;;;;;4988269;28;97401;-73
2022/06/29 03:32:16;;;;;;;5.43;3.45;;;;;;;;;;4991640;28;97436;-73
2022/06/29 03:34:42;;;;;;;5.63;3.40;;;;;;;;;;4987946;28;96815;-72
2022/06/29 03:37:08;;;;;;;7.43;3.70;;;;;;;;;;4987870;28;96275;-72
2022/06/29 03:39:35;;;;;;;7.35;3.90;;;;;;;;;;4987095;28;96259;-72
2022/06/29 03:42:02;;;;;;;6.05;3.50;;;;;;;;;;4988955;28;96875;-72
2022/06/29 03:44:31;;;;;;;6.40;3.42;;;;;;;;;;4987848;28;97319;-72
2022/06/29 03:46:58;;;;;;;7.03;3.53;;;;;;;;;;4989265;28;95045;-72
2022/06/29 03:49:24;;;;;;;5.68;3.65;;;;;;;;;;4987606;28;96831;-72
2022/06/29 03:51:51;;;;;;;6.88;3.92;;;;;;;;;;4986283;28;95872;-72
2022/06/29 03:54:17;;;;;;;9.15;3.70;;;;;;;;;;4990431;28;95539;-72
2022/06/29 03:56:43;;;;;;;5.57;3.33;;;;;;;;;;4988091;28;97269;-72
2022/06/29 03:59:10;;;;;;;5.15;3.55;;;;;;;;;;4985825;28;95471;-72
2022/06/29 04:01:36;;;;;;;5.18;3.20;;;;;;;;;;4988695;28;96629;-72
2022/06/29 04:04:02;;;;;;;7.18;3.90;;;;;;;;;;4987319;28;97850;-72
2022/06/29 04:06:29;;;;;;;5.45;3.80;;;;;;;;;;4987756;28;96311;-72
2022/06/29 04:08:55;;;;;;;6.03;3.50;;;;;;;;;;4987155;28;95646;-71
2022/06/29 04:14:06;;;;;;;5.75;3.72;;;;;;;;;;4985204;28;96479;-72
2022/06/29 04:16:33;;;;;;;6.18;3.92;;;;;;;;;;4990574;28;95614;-72
2022/06/29 04:18:59;;;;;;;6.18;3.75;;;;;;;;;;4987678;28;95752;-71
2022/06/29 04:21:26;;;;;;;6.65;3.47;;;;;;;;;;4991331;28;97199;-72
2022/06/29 04:23:52;;;;;;;4.82;3.60;;;;;;;;;;4990095;28;97383;-72
2022/06/29 04:26:19;;;;;;;6.30;3.90;;;;;;;;;;4991811;28;95408;-71
2022/06/29 04:28:45;;;;;;;10.57;3.83;;;;;;;;;;4990562;28;96794;-72
2022/06/29 04:31:11;;;;;;;7.03;3.85;;;;;;;;;;4990861;28;97529;-72
2022/06/29 04:33:38;;;;;;;7.38;4.03;;;;;;;;;;4990343;28;95408;-71
2022/06/29 04:36:04;;;;;;;5.55;3.40;;;;;;;;;;4994983;28;96794;-72
2022/06/29 04:38:31;;;;;;;8.07;4.18;;;;;;;;;;4990395;28;95580;-72
2022/06/29 04:40:59;;;;;;;5.88;3.65;;;;;;;;;;4990328;28;96672;-72
2022/06/29 04:43:27;;;;;;;6.75;3.72;;;;;;;;;;4990290;28;96610;-72
2022/06/29 04:48:38;;;;;;;8.32;3.65;;;;;;;;;;4990178;28;96757;-71
2022/06/29 04:51:04;;;;;;;7.53;3.75;;;;;;;;;;4990929;28;98919;-72
2022/06/29 04:53:31;;;;;;;7.63;3.70;;;;;;;;;;4991227;28;95482;-72
2022/06/29 04:55:57;;;;;;;6.68;3.80;;;;;;;;;;4990880;28;96788;-72
2022/06/29 04:58:23;;;;;;;9.80;4.75;;;;;;;;;;4993954;28;97256;-72
2022/06/29 20:10:27;;;;;;;7.20;3.78;;;;;;;;;;5108609;27;95733;-73
2022/06/29 20:12:53;;;;;;;5.82;3.53;;;;;;;;;;5084205;27;96821;-73
2022/06/29 20:15:21;;;;;;;10.50;3.50;;;;;;;;;;5070288;27;96167;-73
2022/06/29 20:17:48;;;;;;;7.00;3.80;;;;;;;;;;5046908;27;97439;-72
2022/06/29 20:20:14;;;;;;;7.72;3.85;;;;;;;;;;5066051;27;97566;-72
2022/06/29 20:22:41;;;;;;;11.07;3.88;;;;;;;;;;5077241;27;95391;-72
2022/06/29 20:25:10;;;;;;;7.30;3.53;;;;;;;;;;5060580;27;97256;-72
2022/06/29 20:27:41;;;;;;;7.88;3.50;;;;;;;;;;5066656;27;98077;-72
2022/06/29 20:30:11;;;;;;;7.15;3.78;;;;;;;;;;5083321;27;95131;-72
2022/06/29 20:32:41;;;;;;;10.77;4.30;;;;;;;;;;5066398;27;96344;-72
2022/06/29 20:35:08;;;;;;;14.57;4.80;;;;;;;;;;5066960;27;95625;-72
2022/06/29 20:37:38;;;;;;;11.98;4.97;;;;;;;;;;5066384;27;96810;-72
2022/06/29 20:40:04;;;;;;;13.68;4.65;;;;;;;;;;5065705;27;97582;-72
2022/06/29 20:42:31;;;;;;;8.32;4.82;;;;;;;;;;5071324;27;95340;-72
2022/06/29 20:47:47;;;;;;;11.25;4.80;;;;;;;;;;5080663;27;97346;-72
2022/06/29 20:50:13;;;;;;;7.93;4.57;;;;;;;;;;5076185;27;95986;-72
2022/06/29 20:52:39;;;;;;;12.00;4.85;;;;;;;;;;5073688;27;95792;-72
2022/06/29 20:55:06;;;;;;;10.05;5.10;;;;;;;;;;5084721;27;96514;-72
2022/06/29 20:57:32;;;;;;;11.75;5.15;;;;;;;;;;5081435;27;97047;-72
2022/06/29 20:59:58;;;;;;;10.82;5.75;;;;;;;;;;5070854;27;97316;-71
2022/06/29 21:02:26;;;;;;;9.30;5.28;;;;;;;;;;5085839;27;95147;-71
2022/06/29 21:04:53;;;;;;;9.90;5.47;;;;;;;;;;5069121;27;96227;-72
2022/06/29 21:07:19;;;;;;;10.98;5.53;;;;;;;;;;5064639;27;96867;-72
2022/06/29 21:09:45;;;;;;;9.48;5.30;;;;;;;;;;5065442;27;95386;-72
2022/06/29 21:12:12;;;;;;;9.52;5.50;;;;;;;;;;5065985;27;96809;-72
2022/06/29 21:14:38;;;;;;;10.40;5.55;;;;;;;;;;5067991;27;97011;-72
2022/06/29 21:17:05;;;;;;;10.15;5.65;;;;;;;;;;5047668;27;96746;-71
2022/06/29 21:19:31;;;;;;;10.43;5.97;;;;;;;;;;5064568;27;97494;-71
2022/06/29 21:21:57;;;;;;;13.20;6.57;;;;;;;;;;5059697;27;95483;-72
2022/06/29 21:24:24;;;;;;;9.77;6.63;;;;;;;;;;5050378;27;96738;-72
2022/06/29 21:26:50;;;;;;;12.63;7.03;;;;;;;;;;5072287;27;95989;-72
2022/06/29 21:29:16;;;;;;;13.32;7.20;;;;;;;;;;5062677;27;95766;-72
2022/06/29 21:31:43;;;;;;;16.85;8.20;;;;;;;;;;5072354;27;97409;-72
2022/06/29 21:34:09;;;;;;;16.02;7.82;;;;;;;;;;5071194;27;96928;-71
2022/06/29 21:36:35;;;;;;;10.32;7.30;;;;;;;;;;5049018;27;95490;-71
2022/06/29 21:39:02;;;;;;;10.20;8.00;;;;;;;;;;5050898;27;97084;-71
2022/06/29 21:41:28;;;;;;;12.75;7.95;;;;;;;;;;5051237;27;95532;-72
2022/06/29 21:43:55;;;;;;;13.95;8.07;;;;;;;;;;5059475;27;96897;-72
2022/06/29 21:46:21;;;;;;;13.73;8.00;;;;;;;;;;5065948;27;97290;-71
2022/06/29 21:51:33;;;;;;;12.50;8.25;;;;;;;;;;5051558;27;96785;-71
2022/06/29 21:53:59;;;;;;;13.50;8.40;;;;;;;;;;5050389;27;97204;-71
2022/06/29 21:56:26;;;;;;;13.25;7.82;;;;;;;;;;5060248;27;95361;-72
2022/06/29 21:58:52;;;;;;;12.48;8.20;;;;;;;;;;5066110;27;96754;-72
2022/06/29 22:01:18;;;;;;;12.00;8.00;;;;;;;;;;5059848;27;95396;-72
2022/06/29 22:03:48;;;;;;;10.75;8.07;;;;;;;;;;5051012;27;96796;-72
2022/06/29 22:06:16;;;;;;;10.98;7.47;;;;;;;;;;5054275;27;97358;-72
2022/06/29 22:08:43;;;;;;;12.80;8.50;;;;;;;;;;5049705;27;95974;-72
2022/06/29 22:11:09;;;;;;;12.15;8.77;;;;;;;;;;5051231;27;96736;-71
2022/06/29 22:13:35;;;;;;;12.18;8.23;;;;;;;;;;5062144;27;97791;-71
2022/06/29 22:16:02;;;;;;;15.27;8.98;;;;;;;;;;5066696;27;96427;-71
2022/06/29 22:18:28;;;;;;;13.27;8.85;;;;;;;;;;5050660;27;96584;-71
2022/06/29 22:20:55;;;;;;;14.27;9.60;;;;;;;;;;5053921;27;95429;-72
2022/06/29 22:23:21;;;;;;;15.30;9.43;;;;;;;;;;5050518;27;96375;-72
2022/06/29 22:25:48;;;;;;;14.02;9.10;;;;;;;;;;5045416;27;97321;-71
2022/06/29 22:28:14;;;;;;;13.10;9.20;;;;;;;;;;5062113;27;95734;-72
2022/06/29 22:30:41;;;;;;;13.15;9.40;;;;;;;;;;5054048;27;97177;-72
2022/06/29 22:33:07;;;;;;;14.52;9.80;;;;;;;;;;5049970;27;97326;-72
2022/06/29 22:35:34;;;;;;;14.73;10.00;;;;;;;;;;5050179;27;95447;-72
2022/06/29 22:38:01;;;;;;;12.35;10.32;;;;;;;;;;5049884;27;96687;-72
2022/06/29 22:40:29;;;;;;;13.30;10.15;;;;;;;;;;5052957;27;98016;-72
2022/06/29 22:42:57;;;;;;;14.70;10.95;;;;;;;;;;5056557;27;97086;-72
2022/06/29 22:45:24;;;;;;;14.27;10.55;;;;;;;;;;5057560;27;96428;-72
2022/06/29 22:47:50;;;;;;;19.85;10.43;;;;;;;;;;5049620;27;96528;-72
2022/06/29 22:50:17;;;;;;;14.30;10.88;;;;;;;;;;5049317;27;95863;-72
2022/06/29 22:52:43;;;;;;;18.67;10.98;;;;;;;;;;5049456;27;96169;-72
2022/06/29 22:55:12;;;;;;;18.20;11.60;;;;;;;;;;5050309;27;95653;-72
2022/06/29 22:57:39;;;;;;;15.90;11.85;;;;;;;;;;5049442;27;96571;-71
2022/06/29 23:00:07;;;;;;;19.10;11.65;;;;;;;;;;5048115;27;97199;-72
2022/06/29 23:02:34;;;;;;;15.10;11.57;;;;;;;;;;5065225;27;95724;-72
2022/06/29 23:05:04;;;;;;;14.90;12.02;;;;;;;;;;5069063;27;96569;-71
2022/06/29 23:07:31;;;;;;;19.88;12.95;;;;;;;;;;5057103;27;95829;-72
2022/06/29 23:09:57;;;;;;;29.13;13.85;;;;;;;;;;5048443;27;95262;-72
2022/06/29 23:12:30;;;;;;;15.38;11.98;;;;;;;;;;5038370;27;97579;-72
2022/06/29 23:15:00;;;;;;;20.33;11.52;;;;;;;;;;5052896;27;95745;-72
2022/06/29 23:17:28;;;;;;;19.05;12.38;;;;;;;;;;5049139;27;96049;-73
2022/06/29 23:19:59;;;;;;;22.00;12.38;;;;;;;;;;5048719;27;97330;-72
2022/06/29 23:22:26;;;;;;;23.70;13.43;;;;;;;;;;5048575;27;95722;-73
2022/06/29 23:24:52;;;;;;;21.65;13.63;;;;;;;;;;5052568;27;96873;-73
2022/06/29 23:27:18;;;;;;;23.38;14.20;;;;;;;;;;5064546;27;96162;-73
2022/06/29 23:29:45;;;;;;;16.58;12.77;;;;;;;;;;5063447;27;97078;-73
2022/06/29 23:32:12;;;;;;;16.42;12.45;;;;;;;;;;5051343;27;96191;-72
2022/06/29 23:34:38;;;;;;;18.60;13.75;;;;;;;;;;5036764;27;95554;-73
2022/06/29 23:37:05;;;;;;;20.05;15.40;;;;;;;;;;5069918;27;96787;-72
2022/06/29 23:39:31;;;;;;;33.17;16.90;;;;;;;;;;5044113;27;96633;-73
2022/06/29 23:41:58;;;;;;;19.25;15.18;;;;;;;;;;5069221;27;95316;-73
2022/06/29 23:44:24;;;;;;;38.58;16.50;;;;;;;;;;5066804;27;96442;-73
2022/06/29 23:46:51;;;;;;;24.13;16.35;;;;;;;;;;5071719;27;97360;-73
2022/06/29 23:49:18;;;;;;;20.63;15.38;;;;;;;;;;5061917;27;96298;-73
2022/06/29 23:51:45;;;;;;;22.55;16.83;;;;;;;;;;5048440;27;96309;-72
2022/06/29 23:54:12;;;;;;;22.13;16.85;;;;;;;;;;5048864;27;95683;-73
2022/06/29 23:56:39;;;;;;;26.42;17.70;;;;;;;;;;5046982;27;96824;-72
2022/06/29 23:59:06;;;;;;;24.77;18.00;;;;;;;;;;5049014;27;97325;-73
